Columbus Air Force Base
KCBM : now visible

Airfield :











YOU CAN JOIN US ON...

 
LOGIN :

Register | Disclaimer

   EN    FR    IT 

 









Legend :    VFR   Marginal VFR   IFR   Intensive IFR   Very Intensive IFR
Visi :
Ceiling :
>= 8 km
>= 3000ft
5 to 8 km
1000 to 3000 ft
1500m to 5 km
500 to 1000 ft
800 to 1500m
200 to 500 ft
< 800m
< 200 ft
Symbols :   Thunderstorms  Fog  Heavy snow  Heavy precipitations  Wind > 20 kt






- Airport Elevation : 219 ft


KCBM - Columbus Air Force Base

CURRENT METAR :
  • 130356Z AUTO 15009KT 10SM OVC017 08/04 A3021 RMK AO2 CIG 016 RWY31C SLP234 T00840040 $

EXPIRED METARs :
  • 130301Z AUTO 14012KT 10SM OVC018 09/04 A3020 RMK AO2 SLP230 $
  • 130156Z AUTO 17007KT 10SM OVC021 09/03 A3023 RMK AO2 CIG 020 RWY31C SLP241 T00920032 $
  • 130141Z AUTO 17009KT 10SM OVC020 09/03 A3023 RMK AO2 CIG 019 RWY31C SLP241 $

TAF AMD TAF KCBM
Valid from the 13 at 00:00 until the 13 at 23:00 UTC


130000Z 1300/1323 14009KT 9999 BKN025 QNH3023INS
BECMG 1301/1302 VRB06KT 9999 OVC015 QNH3018INS
BECMG 1303/1304 VRB06KT 9999 OVC007 QNH3016INS
BECMG 1305/1306 VRB06KT 8000 -DZ BR OVC005 QNH3001INS
BECMG 1314/1315 28010G15KT 9999 NSW OVC012 QNH2982INS TX12/1320Z TN07/1306Z LAST NO AMDS AFT 1300 NEXT 1309



MET'MAP, your aeronautical weather chart ! - Copyright ORBIFLY December 2007 - Disclaimer

ORBIFLY MET'MAP TEAM :

Programming & Development : Alexandra Zaïnal
Concept & original design : Baudouin d'Aumeries
Assistance for programming : Marc-Olivier Méhu
Technical & hardware support : Manuel Goepfert

Contact : metmap@orbifly.com




SOURCES & CREDITS :

   NOAA       Earth
Advisory